sensor_id;sensor_type;location;lat;lon;timestamp;P1;durP1;ratioP1;P2;durP2;ratioP2
18435;SDS011;9346;52.006;4.720;2022-08-02T00:01:50;2.43;;;1.40;;
18435;SDS011;9346;52.006;4.720;2022-08-02T00:04:17;1.80;;;1.40;;
18435;SDS011;9346;52.006;4.720;2022-08-02T00:06:44;2.17;;;1.33;;
18435;SDS011;9346;52.006;4.720;2022-08-02T00:09:11;1.27;;;1.13;;
18435;SDS011;9346;52.006;4.720;2022-08-02T00:11:39;1.77;;;1.30;;
18435;SDS011;9346;52.006;4.720;2022-08-02T00:14:07;3.57;;;1.80;;
18435;SDS011;9346;52.006;4.720;2022-08-02T00:16:34;2.93;;;1.13;;
18435;SDS011;9346;52.006;4.720;2022-08-02T00:19:02;1.50;;;1.10;;
18435;SDS011;9346;52.006;4.720;2022-08-02T00:21:29;1.13;;;1.03;;
18435;SDS011;9346;52.006;4.720;2022-08-02T00:23:56;1.10;;;1.00;;
18435;SDS011;9346;52.006;4.720;2022-08-02T00:26:23;1.50;;;0.90;;
18435;SDS011;9346;52.006;4.720;2022-08-02T00:28:49;2.10;;;1.33;;
18435;SDS011;9346;52.006;4.720;2022-08-02T00:31:18;2.13;;;1.30;;
18435;SDS011;9346;52.006;4.720;2022-08-02T00:33:45;2.43;;;1.30;;
18435;SDS011;9346;52.006;4.720;2022-08-02T00:36:12;1.47;;;1.00;;
18435;SDS011;9346;52.006;4.720;2022-08-02T00:38:51;1.77;;;1.20;;
18435;SDS011;9346;52.006;4.720;2022-08-02T00:41:19;1.97;;;1.10;;
18435;SDS011;9346;52.006;4.720;2022-08-02T00:43:47;1.63;;;1.07;;
18435;SDS011;9346;52.006;4.720;2022-08-02T00:46:18;1.30;;;1.20;;
18435;SDS011;9346;52.006;4.720;2022-08-02T00:48:45;1.70;;;1.40;;
18435;SDS011;9346;52.006;4.720;2022-08-02T00:51:13;1.20;;;1.00;;
18435;SDS011;9346;52.006;4.720;2022-08-02T00:53:41;1.90;;;1.33;;
18435;SDS011;9346;52.006;4.720;2022-08-02T00:56:08;2.10;;;1.43;;
18435;SDS011;9346;52.006;4.720;2022-08-02T00:58:35;1.23;;;1.17;;
18435;SDS011;9346;52.006;4.720;2022-08-02T01:01:02;4.93;;;1.40;;
18435;SDS011;9346;52.006;4.720;2022-08-02T01:03:31;3.37;;;1.50;;
18435;SDS011;9346;52.006;4.720;2022-08-02T01:05:58;1.50;;;1.33;;
18435;SDS011;9346;52.006;4.720;2022-08-02T01:08:25;1.53;;;1.40;;
18435;SDS011;9346;52.006;4.720;2022-08-02T01:10:52;2.63;;;1.80;;
18435;SDS011;9346;52.006;4.720;2022-08-02T01:13:19;1.33;;;1.10;;
18435;SDS011;9346;52.006;4.720;2022-08-02T01:15:54;1.70;;;1.40;;
18435;SDS011;9346;52.006;4.720;2022-08-02T01:18:31;1.70;;;1.47;;
18435;SDS011;9346;52.006;4.720;2022-08-02T01:21:13;1.90;;;1.43;;
18435;SDS011;9346;52.006;4.720;2022-08-02T01:24:00;1.60;;;1.50;;
18435;SDS011;9346;52.006;4.720;2022-08-02T01:26:41;2.00;;;1.80;;
18435;SDS011;9346;52.006;4.720;2022-08-02T01:29:15;3.03;;;1.73;;
18435;SDS011;9346;52.006;4.720;2022-08-02T01:31:46;1.07;;;0.97;;
18435;SDS011;9346;52.006;4.720;2022-08-02T01:34:17;2.80;;;1.80;;
18435;SDS011;9346;52.006;4.720;2022-08-02T01:36:47;3.10;;;1.47;;
18435;SDS011;9346;52.006;4.720;2022-08-02T01:39:18;4.20;;;1.60;;
18435;SDS011;9346;52.006;4.720;2022-08-02T01:41:48;2.80;;;1.93;;
18435;SDS011;9346;52.006;4.720;2022-08-02T01:44:19;2.43;;;1.70;;
18435;SDS011;9346;52.006;4.720;2022-08-02T01:46:47;3.80;;;2.00;;
18435;SDS011;9346;52.006;4.720;2022-08-02T01:49:17;2.63;;;1.20;;
18435;SDS011;9346;52.006;4.720;2022-08-02T01:51:48;1.90;;;1.53;;
18435;SDS011;9346;52.006;4.720;2022-08-02T01:54:34;2.73;;;1.30;;
18435;SDS011;9346;52.006;4.720;2022-08-02T01:57:04;2.03;;;1.57;;
18435;SDS011;9346;52.006;4.720;2022-08-02T01:59:35;3.23;;;1.67;;
18435;SDS011;9346;52.006;4.720;2022-08-02T02:02:03;2.00;;;1.80;;
18435;SDS011;9346;52.006;4.720;2022-08-02T02:04:34;4.10;;;1.60;;
18435;SDS011;9346;52.006;4.720;2022-08-02T02:07:02;2.00;;;1.43;;
18435;SDS011;9346;52.006;4.720;2022-08-02T02:09:33;1.80;;;1.70;;
18435;SDS011;9346;52.006;4.720;2022-08-02T02:12:02;1.70;;;1.50;;
18435;SDS011;9346;52.006;4.720;2022-08-02T02:14:31;3.13;;;1.70;;
18435;SDS011;9346;52.006;4.720;2022-08-02T02:17:03;3.10;;;1.70;;
18435;SDS011;9346;52.006;4.720;2022-08-02T02:19:31;3.57;;;1.70;;
18435;SDS011;9346;52.006;4.720;2022-08-02T02:21:59;3.93;;;2.07;;
18435;SDS011;9346;52.006;4.720;2022-08-02T02:24:26;2.30;;;1.57;;
18435;SDS011;9346;52.006;4.720;2022-08-02T02:26:53;2.47;;;1.53;;
18435;SDS011;9346;52.006;4.720;2022-08-02T02:29:21;4.80;;;1.87;;
18435;SDS011;9346;52.006;4.720;2022-08-02T02:31:53;3.53;;;1.67;;
18435;SDS011;9346;52.006;4.720;2022-08-02T02:34:25;4.80;;;1.50;;
18435;SDS011;9346;52.006;4.720;2022-08-02T02:36:55;2.57;;;2.20;;
18435;SDS011;9346;52.006;4.720;2022-08-02T02:39:24;1.73;;;1.60;;
18435;SDS011;9346;52.006;4.720;2022-08-02T02:41:54;1.60;;;1.50;;
18435;SDS011;9346;52.006;4.720;2022-08-02T02:44:25;2.43;;;1.70;;
18435;SDS011;9346;52.006;4.720;2022-08-02T02:46:54;5.33;;;1.70;;
18435;SDS011;9346;52.006;4.720;2022-08-02T02:49:22;4.67;;;2.90;;
18435;SDS011;9346;52.006;4.720;2022-08-02T02:51:52;2.70;;;1.60;;
18435;SDS011;9346;52.006;4.720;2022-08-02T02:54:20;3.07;;;2.07;;
18435;SDS011;9346;52.006;4.720;2022-08-02T02:56:48;2.63;;;1.57;;
18435;SDS011;9346;52.006;4.720;2022-08-02T02:59:17;3.80;;;1.60;;
18435;SDS011;9346;52.006;4.720;2022-08-02T03:01:44;1.73;;;1.60;;
18435;SDS011;9346;52.006;4.720;2022-08-02T03:04:11;3.30;;;1.93;;
18435;SDS011;9346;52.006;4.720;2022-08-02T03:06:41;1.90;;;1.63;;
18435;SDS011;9346;52.006;4.720;2022-08-02T03:09:08;3.30;;;1.60;;
18435;SDS011;9346;52.006;4.720;2022-08-02T03:11:37;2.90;;;1.90;;
18435;SDS011;9346;52.006;4.720;2022-08-02T03:14:09;1.40;;;1.30;;
18435;SDS011;9346;52.006;4.720;2022-08-02T03:16:43;4.57;;;1.97;;
18435;SDS011;9346;52.006;4.720;2022-08-02T03:19:11;2.53;;;1.57;;
18435;SDS011;9346;52.006;4.720;2022-08-02T03:21:38;1.50;;;1.30;;
18435;SDS011;9346;52.006;4.720;2022-08-02T03:24:09;2.33;;;1.50;;
18435;SDS011;9346;52.006;4.720;2022-08-02T03:26:36;2.37;;;1.40;;
18435;SDS011;9346;52.006;4.720;2022-08-02T03:29:04;5.33;;;1.77;;
18435;SDS011;9346;52.006;4.720;2022-08-02T03:31:31;2.60;;;1.40;;
18435;SDS011;9346;52.006;4.720;2022-08-02T03:33:58;2.33;;;1.60;;
18435;SDS011;9346;52.006;4.720;2022-08-02T03:36:27;1.63;;;1.20;;
18435;SDS011;9346;52.006;4.720;2022-08-02T03:38:59;1.87;;;1.20;;
18435;SDS011;9346;52.006;4.720;2022-08-02T03:41:27;2.10;;;1.60;;
18435;SDS011;9346;52.006;4.720;2022-08-02T03:43:55;2.03;;;1.57;;
18435;SDS011;9346;52.006;4.720;2022-08-02T03:46:23;1.87;;;1.57;;
18435;SDS011;9346;52.006;4.720;2022-08-02T03:48:51;1.77;;;1.20;;
18435;SDS011;9346;52.006;4.720;2022-08-02T03:51:19;2.57;;;1.60;;
18435;SDS011;9346;52.006;4.720;2022-08-02T03:53:47;7.10;;;1.53;;
18435;SDS011;9346;52.006;4.720;2022-08-02T03:56:17;5.97;;;1.63;;
18435;SDS011;9346;52.006;4.720;2022-08-02T03:58:45;2.47;;;1.60;;
18435;SDS011;9346;52.006;4.720;2022-08-02T04:01:12;4.93;;;1.53;;
18435;SDS011;9346;52.006;4.720;2022-08-02T04:03:38;4.60;;;1.50;;
18435;SDS011;9346;52.006;4.720;2022-08-02T04:06:06;6.73;;;1.90;;
18435;SDS011;9346;52.006;4.720;2022-08-02T04:08:33;3.53;;;1.30;;
18435;SDS011;9346;52.006;4.720;2022-08-02T04:11:00;3.23;;;1.40;;
18435;SDS011;9346;52.006;4.720;2022-08-02T04:13:46;8.03;;;1.90;;
18435;SDS011;9346;52.006;4.720;2022-08-02T04:16:14;5.03;;;1.43;;
18435;SDS011;9346;52.006;4.720;2022-08-02T04:18:47;3.70;;;1.77;;
18435;SDS011;9346;52.006;4.720;2022-08-02T04:21:19;1.87;;;1.40;;
18435;SDS011;9346;52.006;4.720;2022-08-02T04:23:49;1.50;;;1.33;;
18435;SDS011;9346;52.006;4.720;2022-08-02T04:26:16;4.43;;;1.90;;
18435;SDS011;9346;52.006;4.720;2022-08-02T04:28:46;2.60;;;2.20;;
18435;SDS011;9346;52.006;4.720;2022-08-02T04:31:13;1.33;;;1.23;;
18435;SDS011;9346;52.006;4.720;2022-08-02T04:33:42;5.67;;;1.53;;
18435;SDS011;9346;52.006;4.720;2022-08-02T04:36:09;3.03;;;1.90;;
18435;SDS011;9346;52.006;4.720;2022-08-02T04:38:38;2.73;;;1.93;;
18435;SDS011;9346;52.006;4.720;2022-08-02T04:41:04;2.53;;;1.70;;
18435;SDS011;9346;52.006;4.720;2022-08-02T04:43:31;5.17;;;2.13;;
18435;SDS011;9346;52.006;4.720;2022-08-02T04:46:00;1.50;;;1.40;;
18435;SDS011;9346;52.006;4.720;2022-08-02T04:48:28;3.47;;;2.00;;
18435;SDS011;9346;52.006;4.720;2022-08-02T04:50:56;2.47;;;1.43;;
18435;SDS011;9346;52.006;4.720;2022-08-02T04:53:23;1.73;;;1.50;;
18435;SDS011;9346;52.006;4.720;2022-08-02T04:55:50;3.23;;;1.70;;
18435;SDS011;9346;52.006;4.720;2022-08-02T04:58:17;3.80;;;2.10;;
18435;SDS011;9346;52.006;4.720;2022-08-02T05:00:44;2.57;;;1.57;;
18435;SDS011;9346;52.006;4.720;2022-08-02T05:03:13;5.30;;;1.93;;
18435;SDS011;9346;52.006;4.720;2022-08-02T05:05:40;2.07;;;1.63;;
18435;SDS011;9346;52.006;4.720;2022-08-02T05:08:08;1.87;;;1.73;;
18435;SDS011;9346;52.006;4.720;2022-08-02T05:10:35;2.10;;;1.70;;
18435;SDS011;9346;52.006;4.720;2022-08-02T05:13:02;3.17;;;1.90;;
18435;SDS011;9346;52.006;4.720;2022-08-02T05:15:31;2.03;;;1.87;;
18435;SDS011;9346;52.006;4.720;2022-08-02T05:17:58;5.17;;;1.93;;
18435;SDS011;9346;52.006;4.720;2022-08-02T05:20:26;5.40;;;2.23;;
18435;SDS011;9346;52.006;4.720;2022-08-02T05:22:53;4.10;;;2.03;;
18435;SDS011;9346;52.006;4.720;2022-08-02T05:25:21;2.40;;;2.10;;
18435;SDS011;9346;52.006;4.720;2022-08-02T05:27:47;2.97;;;2.10;;
18435;SDS011;9346;52.006;4.720;2022-08-02T05:30:14;2.10;;;1.90;;
18435;SDS011;9346;52.006;4.720;2022-08-02T05:32:42;4.80;;;2.20;;
18435;SDS011;9346;52.006;4.720;2022-08-02T05:35:16;2.53;;;1.87;;
18435;SDS011;9346;52.006;4.720;2022-08-02T05:37:47;3.90;;;2.40;;
18435;SDS011;9346;52.006;4.720;2022-08-02T05:40:15;2.97;;;2.03;;
18435;SDS011;9346;52.006;4.720;2022-08-02T05:42:43;2.83;;;2.20;;
18435;SDS011;9346;52.006;4.720;2022-08-02T05:45:10;2.20;;;1.60;;
18435;SDS011;9346;52.006;4.720;2022-08-02T05:47:37;2.60;;;1.97;;
18435;SDS011;9346;52.006;4.720;2022-08-02T05:50:05;4.33;;;2.00;;
18435;SDS011;9346;52.006;4.720;2022-08-02T05:52:39;2.73;;;1.90;;
18435;SDS011;9346;52.006;4.720;2022-08-02T05:55:14;3.13;;;1.90;;
18435;SDS011;9346;52.006;4.720;2022-08-02T05:57:48;3.07;;;1.93;;
18435;SDS011;9346;52.006;4.720;2022-08-02T06:00:20;4.43;;;2.07;;
18435;SDS011;9346;52.006;4.720;2022-08-02T06:05:48;2.80;;;2.00;;
18435;SDS011;9346;52.006;4.720;2022-08-02T06:08:17;2.37;;;2.03;;
18435;SDS011;9346;52.006;4.720;2022-08-02T06:10:48;3.17;;;1.90;;
18435;SDS011;9346;52.006;4.720;2022-08-02T06:13:22;3.83;;;1.80;;
18435;SDS011;9346;52.006;4.720;2022-08-02T06:15:50;2.87;;;2.00;;
18435;SDS011;9346;52.006;4.720;2022-08-02T06:18:20;3.03;;;2.30;;
18435;SDS011;9346;52.006;4.720;2022-08-02T06:20:47;4.53;;;2.33;;
18435;SDS011;9346;52.006;4.720;2022-08-02T06:23:15;3.13;;;2.37;;
18435;SDS011;9346;52.006;4.720;2022-08-02T06:25:44;2.77;;;2.40;;
18435;SDS011;9346;52.006;4.720;2022-08-02T06:28:13;4.33;;;2.57;;
18435;SDS011;9346;52.006;4.720;2022-08-02T06:30:42;5.77;;;3.13;;
18435;SDS011;9346;52.006;4.720;2022-08-02T06:33:10;5.70;;;3.00;;
18435;SDS011;9346;52.006;4.720;2022-08-02T06:35:39;4.47;;;3.10;;
18435;SDS011;9346;52.006;4.720;2022-08-02T06:38:11;4.70;;;3.37;;
18435;SDS011;9346;52.006;4.720;2022-08-02T06:40:44;5.10;;;3.67;;
18435;SDS011;9346;52.006;4.720;2022-08-02T06:43:20;5.20;;;3.77;;
18435;SDS011;9346;52.006;4.720;2022-08-02T06:45:51;6.63;;;3.90;;
18435;SDS011;9346;52.006;4.720;2022-08-02T06:48:19;6.17;;;3.47;;
18435;SDS011;9346;52.006;4.720;2022-08-02T06:50:46;6.13;;;3.60;;
18435;SDS011;9346;52.006;4.720;2022-08-02T06:53:13;5.43;;;3.43;;
18435;SDS011;9346;52.006;4.720;2022-08-02T06:55:40;5.30;;;3.70;;
18435;SDS011;9346;52.006;4.720;2022-08-02T06:58:07;10.03;;;4.50;;
18435;SDS011;9346;52.006;4.720;2022-08-02T07:00:36;5.07;;;4.10;;
18435;SDS011;9346;52.006;4.720;2022-08-02T07:03:03;5.33;;;4.40;;
18435;SDS011;9346;52.006;4.720;2022-08-02T07:05:30;5.83;;;4.63;;
18435;SDS011;9346;52.006;4.720;2022-08-02T07:07:57;8.33;;;5.50;;
18435;SDS011;9346;52.006;4.720;2022-08-02T07:10:24;8.33;;;6.30;;
18435;SDS011;9346;52.006;4.720;2022-08-02T07:12:51;12.27;;;7.73;;
18435;SDS011;9346;52.006;4.720;2022-08-02T07:15:18;9.70;;;6.47;;
18435;SDS011;9346;52.006;4.720;2022-08-02T07:17:47;9.23;;;6.03;;
18435;SDS011;9346;52.006;4.720;2022-08-02T07:20:14;9.70;;;6.87;;
18435;SDS011;9346;52.006;4.720;2022-08-02T07:22:41;8.83;;;6.00;;
18435;SDS011;9346;52.006;4.720;2022-08-02T07:25:08;10.53;;;6.43;;
18435;SDS011;9346;52.006;4.720;2022-08-02T07:27:35;9.80;;;5.93;;
18435;SDS011;9346;52.006;4.720;2022-08-02T07:30:02;7.97;;;6.27;;
18435;SDS011;9346;52.006;4.720;2022-08-02T07:32:30;7.63;;;5.97;;
18435;SDS011;9346;52.006;4.720;2022-08-02T07:35:00;9.13;;;6.27;;
18435;SDS011;9346;52.006;4.720;2022-08-02T07:37:28;9.67;;;6.43;;
18435;SDS011;9346;52.006;4.720;2022-08-02T07:39:57;8.00;;;5.20;;
18435;SDS011;9346;52.006;4.720;2022-08-02T07:42:24;7.63;;;5.07;;
18435;SDS011;9346;52.006;4.720;2022-08-02T07:44:53;5.93;;;4.87;;
18435;SDS011;9346;52.006;4.720;2022-08-02T07:47:20;6.37;;;4.27;;
18435;SDS011;9346;52.006;4.720;2022-08-02T07:49:47;6.57;;;4.47;;
18435;SDS011;9346;52.006;4.720;2022-08-02T07:52:16;7.23;;;4.67;;
18435;SDS011;9346;52.006;4.720;2022-08-02T07:54:42;7.40;;;4.57;;
18435;SDS011;9346;52.006;4.720;2022-08-02T07:57:09;9.03;;;4.70;;
18435;SDS011;9346;52.006;4.720;2022-08-02T07:59:36;6.90;;;4.87;;
18435;SDS011;9346;52.006;4.720;2022-08-02T08:02:03;8.13;;;5.10;;
18435;SDS011;9346;52.006;4.720;2022-08-02T08:04:30;8.77;;;5.67;;
18435;SDS011;9346;52.006;4.720;2022-08-02T08:06:57;6.57;;;4.60;;
18435;SDS011;9346;52.006;4.720;2022-08-02T08:09:26;6.63;;;4.77;;
18435;SDS011;9346;52.006;4.720;2022-08-02T08:11:52;5.17;;;4.53;;
18435;SDS011;9346;52.006;4.720;2022-08-02T08:14:19;5.97;;;4.77;;
18435;SDS011;9346;52.006;4.720;2022-08-02T08:16:46;8.37;;;5.17;;
18435;SDS011;9346;52.006;4.720;2022-08-02T08:19:13;6.17;;;4.70;;
18435;SDS011;9346;52.006;4.720;2022-08-02T08:21:40;7.03;;;4.70;;
18435;SDS011;9346;52.006;4.720;2022-08-02T08:24:07;9.90;;;5.40;;
18435;SDS011;9346;52.006;4.720;2022-08-02T08:26:35;8.47;;;6.07;;
18435;SDS011;9346;52.006;4.720;2022-08-02T08:29:03;8.33;;;4.63;;
18435;SDS011;9346;52.006;4.720;2022-08-02T08:31:31;9.67;;;5.93;;
18435;SDS011;9346;52.006;4.720;2022-08-02T08:33:59;9.47;;;5.73;;
18435;SDS011;9346;52.006;4.720;2022-08-02T08:36:26;6.13;;;4.83;;
18435;SDS011;9346;52.006;4.720;2022-08-02T08:38:54;8.13;;;5.10;;
18435;SDS011;9346;52.006;4.720;2022-08-02T08:41:21;8.00;;;4.03;;
18435;SDS011;9346;52.006;4.720;2022-08-02T08:43:50;5.27;;;3.77;;
18435;SDS011;9346;52.006;4.720;2022-08-02T08:46:18;6.53;;;3.97;;
18435;SDS011;9346;52.006;4.720;2022-08-02T08:48:52;6.40;;;4.63;;
18435;SDS011;9346;52.006;4.720;2022-08-02T08:51:21;6.33;;;4.07;;
18435;SDS011;9346;52.006;4.720;2022-08-02T08:53:51;6.97;;;4.73;;
18435;SDS011;9346;52.006;4.720;2022-08-02T08:56:19;4.37;;;3.27;;
18435;SDS011;9346;52.006;4.720;2022-08-02T08:58:46;3.37;;;2.87;;
18435;SDS011;9346;52.006;4.720;2022-08-02T09:01:15;5.27;;;3.80;;
18435;SDS011;9346;52.006;4.720;2022-08-02T09:03:45;5.47;;;4.00;;
18435;SDS011;9346;52.006;4.720;2022-08-02T09:06:25;5.37;;;3.40;;
18435;SDS011;9346;52.006;4.720;2022-08-02T09:08:53;5.73;;;3.90;;
18435;SDS011;9346;52.006;4.720;2022-08-02T09:11:21;5.17;;;3.50;;
18435;SDS011;9346;52.006;4.720;2022-08-02T09:13:50;3.93;;;2.90;;
18435;SDS011;9346;52.006;4.720;2022-08-02T09:16:31;4.77;;;3.83;;
18435;SDS011;9346;52.006;4.720;2022-08-02T09:19:01;4.97;;;3.67;;
18435;SDS011;9346;52.006;4.720;2022-08-02T09:21:47;3.73;;;3.07;;
18435;SDS011;9346;52.006;4.720;2022-08-02T09:24:16;6.43;;;4.10;;
18435;SDS011;9346;52.006;4.720;2022-08-02T09:26:47;4.87;;;3.57;;
18435;SDS011;9346;52.006;4.720;2022-08-02T09:29:15;4.33;;;3.33;;
18435;SDS011;9346;52.006;4.720;2022-08-02T09:31:45;4.80;;;2.73;;
18435;SDS011;9346;52.006;4.720;2022-08-02T09:34:12;3.70;;;2.60;;
18435;SDS011;9346;52.006;4.720;2022-08-02T09:36:39;3.37;;;2.40;;
18435;SDS011;9346;52.006;4.720;2022-08-02T09:39:07;2.87;;;2.30;;
18435;SDS011;9346;52.006;4.720;2022-08-02T09:41:36;3.77;;;3.37;;
18435;SDS011;9346;52.006;4.720;2022-08-02T09:44:05;3.10;;;2.47;;
18435;SDS011;9346;52.006;4.720;2022-08-02T09:46:37;3.67;;;2.83;;
18435;SDS011;9346;52.006;4.720;2022-08-02T09:49:07;2.10;;;1.90;;
18435;SDS011;9346;52.006;4.720;2022-08-02T09:51:37;3.03;;;2.20;;
18435;SDS011;9346;52.006;4.720;2022-08-02T09:54:07;2.23;;;2.00;;
18435;SDS011;9346;52.006;4.720;2022-08-02T09:56:39;7.23;;;2.00;;
18435;SDS011;9346;52.006;4.720;2022-08-02T09:59:08;2.90;;;2.30;;
18435;SDS011;9346;52.006;4.720;2022-08-02T10:01:36;2.03;;;1.83;;
18435;SDS011;9346;52.006;4.720;2022-08-02T10:04:11;4.17;;;2.00;;
18435;SDS011;9346;52.006;4.720;2022-08-02T10:06:40;3.00;;;1.90;;
18435;SDS011;9346;52.006;4.720;2022-08-02T10:09:10;2.83;;;2.20;;
18435;SDS011;9346;52.006;4.720;2022-08-02T10:11:37;2.70;;;1.83;;
18435;SDS011;9346;52.006;4.720;2022-08-02T10:14:06;3.53;;;1.80;;
18435;SDS011;9346;52.006;4.720;2022-08-02T10:16:35;2.30;;;1.77;;
18435;SDS011;9346;52.006;4.720;2022-08-02T10:19:04;2.23;;;2.00;;
18435;SDS011;9346;52.006;4.720;2022-08-02T10:21:37;2.77;;;2.10;;
18435;SDS011;9346;52.006;4.720;2022-08-02T10:24:10;3.07;;;2.20;;
18435;SDS011;9346;52.006;4.720;2022-08-02T10:26:40;3.70;;;2.07;;
18435;SDS011;9346;52.006;4.720;2022-08-02T10:29:09;3.50;;;2.33;;
18435;SDS011;9346;52.006;4.720;2022-08-02T10:31:40;2.53;;;2.07;;
18435;SDS011;9346;52.006;4.720;2022-08-02T10:34:17;3.07;;;1.87;;
18435;SDS011;9346;52.006;4.720;2022-08-02T10:36:47;3.27;;;2.10;;
18435;SDS011;9346;52.006;4.720;2022-08-02T10:39:16;1.97;;;1.40;;
18435;SDS011;9346;52.006;4.720;2022-08-02T10:41:44;2.10;;;1.83;;
18435;SDS011;9346;52.006;4.720;2022-08-02T10:44:19;3.10;;;1.53;;
18435;SDS011;9346;52.006;4.720;2022-08-02T10:46:47;2.97;;;1.43;;
18435;SDS011;9346;52.006;4.720;2022-08-02T10:49:15;3.80;;;1.77;;
18435;SDS011;9346;52.006;4.720;2022-08-02T10:51:58;3.00;;;1.40;;
18435;SDS011;9346;52.006;4.720;2022-08-02T10:54:32;2.10;;;1.60;;
18435;SDS011;9346;52.006;4.720;2022-08-02T10:57:01;2.20;;;1.70;;
18435;SDS011;9346;52.006;4.720;2022-08-02T10:59:29;2.67;;;1.50;;
18435;SDS011;9346;52.006;4.720;2022-08-02T11:01:59;2.37;;;2.10;;
18435;SDS011;9346;52.006;4.720;2022-08-02T11:04:28;2.47;;;1.93;;
18435;SDS011;9346;52.006;4.720;2022-08-02T11:07:07;1.40;;;1.30;;
18435;SDS011;9346;52.006;4.720;2022-08-02T11:09:38;3.10;;;1.57;;
18435;SDS011;9346;52.006;4.720;2022-08-02T11:12:05;2.47;;;1.77;;
18435;SDS011;9346;52.006;4.720;2022-08-02T11:14:34;1.27;;;1.13;;
18435;SDS011;9346;52.006;4.720;2022-08-02T11:17:12;1.13;;;0.97;;
18435;SDS011;9346;52.006;4.720;2022-08-02T11:22:47;2.23;;;1.80;;
18435;SDS011;9346;52.006;4.720;2022-08-02T11:25:29;2.03;;;1.80;;
18435;SDS011;9346;52.006;4.720;2022-08-02T11:27:57;2.00;;;1.40;;
18435;SDS011;9346;52.006;4.720;2022-08-02T11:30:26;1.90;;;1.50;;
18435;SDS011;9346;52.006;4.720;2022-08-02T11:32:54;1.53;;;1.40;;
18435;SDS011;9346;52.006;4.720;2022-08-02T11:35:22;2.28;;;1.70;;
18435;SDS011;9346;52.006;4.720;2022-08-02T11:37:59;3.25;;;1.80;;
18435;SDS011;9346;52.006;4.720;2022-08-02T11:40:39;3.90;;;2.00;;
18435;SDS011;9346;52.006;4.720;2022-08-02T11:43:14;2.85;;;1.92;;
18435;SDS011;9346;52.006;4.720;2022-08-02T11:45:42;2.35;;;1.58;;
18435;SDS011;9346;52.006;4.720;2022-08-02T11:48:09;2.53;;;1.90;;
18435;SDS011;9346;52.006;4.720;2022-08-02T11:50:36;2.30;;;1.70;;
18435;SDS011;9346;52.006;4.720;2022-08-02T11:53:12;3.20;;;1.95;;
18435;SDS011;9346;52.006;4.720;2022-08-02T11:55:40;3.85;;;2.28;;
18435;SDS011;9346;52.006;4.720;2022-08-02T11:58:07;4.13;;;2.28;;
18435;SDS011;9346;52.006;4.720;2022-08-02T12:00:35;2.83;;;2.53;;
18435;SDS011;9346;52.006;4.720;2022-08-02T12:03:03;3.33;;;2.58;;
18435;SDS011;9346;52.006;4.720;2022-08-02T12:05:31;3.20;;;2.20;;
18435;SDS011;9346;52.006;4.720;2022-08-02T12:07:58;2.22;;;1.90;;
18435;SDS011;9346;52.006;4.720;2022-08-02T12:10:32;2.10;;;1.50;;
18435;SDS011;9346;52.006;4.720;2022-08-02T12:12:59;1.45;;;1.33;;
18435;SDS011;9346;52.006;4.720;2022-08-02T12:15:34;2.42;;;1.48;;
18435;SDS011;9346;52.006;4.720;2022-08-02T12:18:07;2.35;;;1.48;;
18435;SDS011;9346;52.006;4.720;2022-08-02T12:20:52;5.43;;;1.45;;
18435;SDS011;9346;52.006;4.720;2022-08-02T12:23:19;1.60;;;1.40;;
18435;SDS011;9346;52.006;4.720;2022-08-02T12:25:59;1.45;;;1.35;;
18435;SDS011;9346;52.006;4.720;2022-08-02T12:28:32;1.85;;;1.50;;
18435;SDS011;9346;52.006;4.720;2022-08-02T12:31:00;2.75;;;1.40;;
18435;SDS011;9346;52.006;4.720;2022-08-02T12:33:42;3.88;;;1.50;;
18435;SDS011;9346;52.006;4.720;2022-08-02T12:36:13;1.88;;;1.70;;
18435;SDS011;9346;52.006;4.720;2022-08-02T12:38:48;2.75;;;1.90;;
18435;SDS011;9346;52.006;4.720;2022-08-02T12:41:17;2.88;;;1.83;;
18435;SDS011;9346;52.006;4.720;2022-08-02T12:43:44;1.58;;;1.20;;
18435;SDS011;9346;52.006;4.720;2022-08-02T12:46:13;1.50;;;1.17;;
18435;SDS011;9346;52.006;4.720;2022-08-02T12:48:42;2.85;;;1.30;;
18435;SDS011;9346;52.006;4.720;2022-08-02T12:51:20;2.20;;;1.25;;
18435;SDS011;9346;52.006;4.720;2022-08-02T12:53:48;1.92;;;1.55;;
18435;SDS011;9346;52.006;4.720;2022-08-02T12:56:27;1.65;;;1.40;;
18435;SDS011;9346;52.006;4.720;2022-08-02T12:58:55;1.67;;;0.95;;
18435;SDS011;9346;52.006;4.720;2022-08-02T13:01:23;3.38;;;1.00;;
18435;SDS011;9346;52.006;4.720;2022-08-02T13:03:52;2.38;;;1.10;;
18435;SDS011;9346;52.006;4.720;2022-08-02T13:06:19;2.97;;;1.25;;
18435;SDS011;9346;52.006;4.720;2022-08-02T13:08:49;1.10;;;1.00;;
18435;SDS011;9346;52.006;4.720;2022-08-02T13:11:17;1.85;;;1.25;;
18435;SDS011;9346;52.006;4.720;2022-08-02T13:13:46;3.38;;;1.70;;
18435;SDS011;9346;52.006;4.720;2022-08-02T13:16:13;1.25;;;1.13;;
18435;SDS011;9346;52.006;4.720;2022-08-02T13:18:41;3.03;;;1.00;;
18435;SDS011;9346;52.006;4.720;2022-08-02T13:21:09;1.77;;;1.20;;
18435;SDS011;9346;52.006;4.720;2022-08-02T13:23:36;1.00;;;0.90;;
18435;SDS011;9346;52.006;4.720;2022-08-02T13:26:03;4.22;;;1.25;;
18435;SDS011;9346;52.006;4.720;2022-08-02T13:28:31;1.50;;;1.10;;
18435;SDS011;9346;52.006;4.720;2022-08-02T13:31:02;1.90;;;1.30;;
18435;SDS011;9346;52.006;4.720;2022-08-02T13:33:30;1.98;;;1.10;;
18435;SDS011;9346;52.006;4.720;2022-08-02T13:35:56;0.77;;;0.70;;
18435;SDS011;9346;52.006;4.720;2022-08-02T13:38:23;2.30;;;1.42;;
18435;SDS011;9346;52.006;4.720;2022-08-02T13:40:50;1.25;;;1.15;;
18435;SDS011;9346;52.006;4.720;2022-08-02T13:43:37;3.75;;;1.00;;
18435;SDS011;9346;52.006;4.720;2022-08-02T13:46:07;2.80;;;0.70;;
18435;SDS011;9346;52.006;4.720;2022-08-02T13:48:34;1.67;;;0.77;;
18435;SDS011;9346;52.006;4.720;2022-08-02T13:51:01;1.92;;;1.10;;
18435;SDS011;9346;52.006;4.720;2022-08-02T13:53:28;1.25;;;0.90;;
18435;SDS011;9346;52.006;4.720;2022-08-02T13:55:54;1.52;;;1.00;;
18435;SDS011;9346;52.006;4.720;2022-08-02T13:58:22;1.02;;;0.95;;
18435;SDS011;9346;52.006;4.720;2022-08-02T14:00:49;2.30;;;1.08;;
18435;SDS011;9346;52.006;4.720;2022-08-02T14:03:18;1.42;;;0.95;;
18435;SDS011;9346;52.006;4.720;2022-08-02T14:05:44;3.03;;;1.48;;
18435;SDS011;9346;52.006;4.720;2022-08-02T14:08:11;1.30;;;0.85;;
18435;SDS011;9346;52.006;4.720;2022-08-02T14:10:39;2.63;;;1.08;;
18435;SDS011;9346;52.006;4.720;2022-08-02T14:13:08;2.17;;;0.82;;
18435;SDS011;9346;52.006;4.720;2022-08-02T14:15:35;1.35;;;0.88;;
18435;SDS011;9346;52.006;4.720;2022-08-02T14:18:02;2.72;;;0.88;;
18435;SDS011;9346;52.006;4.720;2022-08-02T14:20:31;0.98;;;0.85;;
18435;SDS011;9346;52.006;4.720;2022-08-02T14:22:58;0.95;;;0.85;;
18435;SDS011;9346;52.006;4.720;2022-08-02T14:25:25;1.40;;;0.90;;
18435;SDS011;9346;52.006;4.720;2022-08-02T14:27:52;1.67;;;1.10;;
18435;SDS011;9346;52.006;4.720;2022-08-02T14:30:19;6.32;;;1.02;;
18435;SDS011;9346;52.006;4.720;2022-08-02T14:32:47;2.53;;;1.00;;
18435;SDS011;9346;52.006;4.720;2022-08-02T14:35:14;0.93;;;0.75;;
18435;SDS011;9346;52.006;4.720;2022-08-02T14:37:43;1.05;;;0.80;;
18435;SDS011;9346;52.006;4.720;2022-08-02T14:40:10;2.58;;;1.00;;
18435;SDS011;9346;52.006;4.720;2022-08-02T14:42:38;2.20;;;0.90;;
18435;SDS011;9346;52.006;4.720;2022-08-02T14:45:05;5.15;;;1.30;;
18435;SDS011;9346;52.006;4.720;2022-08-02T14:47:32;2.05;;;0.90;;
18435;SDS011;9346;52.006;4.720;2022-08-02T14:49:59;1.08;;;0.95;;
18435;SDS011;9346;52.006;4.720;2022-08-02T14:52:26;3.13;;;1.20;;
18435;SDS011;9346;52.006;4.720;2022-08-02T14:54:55;1.33;;;0.88;;
18435;SDS011;9346;52.006;4.720;2022-08-02T14:57:22;0.88;;;0.70;;
18435;SDS011;9346;52.006;4.720;2022-08-02T14:59:49;1.10;;;0.55;;
18435;SDS011;9346;52.006;4.720;2022-08-02T15:02:16;2.75;;;1.00;;
18435;SDS011;9346;52.006;4.720;2022-08-02T15:04:42;0.90;;;0.88;;
18435;SDS011;9346;52.006;4.720;2022-08-02T15:07:10;0.90;;;0.70;;
18435;SDS011;9346;52.006;4.720;2022-08-02T15:09:38;1.55;;;0.95;;
18435;SDS011;9346;52.006;4.720;2022-08-02T15:12:07;1.08;;;0.90;;
18435;SDS011;9346;52.006;4.720;2022-08-02T15:14:35;0.60;;;0.50;;
18435;SDS011;9346;52.006;4.720;2022-08-02T15:17:01;0.93;;;0.80;;
18435;SDS011;9346;52.006;4.720;2022-08-02T15:19:28;2.28;;;0.80;;